Historyczne dane pomiarowe

Dodano dane terminowe – wersja testowa.

Dane z okresu 1951-2019

Wersja bazy: 1.34 [2019-03-16, lista zmian], aktualizacja planowana na 2019-04-15

Dane meteo z obszaru Polski uzyskane na podstawie danych udostępnionych przez Instytut Meteorologii i Gospodarki Wodnej – Państwowy Instytut Badawczy.

 

Wybierz Datę:    

       

TemperaturaWilgotnośćWiatrCiśnienieOpadyŚniegCzas trwania zjawisk
 Stacja t tx tn tng RH VA  wxwx mslp ppp RRR   cm mm wxwxwxwxwxwxwx
1999-08-14 12.9 19.7 5.6 3.8 75.0- 3.7 0.7---- 0.0------------
1999-08-13 13.4 19.1 8.2 6.9 79.8- 4.7 0.7---- 0.0------------
1999-08-12 14.9 18.2 12.4 11.9 84.8- 7.3 0.0---- 0.0------------
1999-08-11 19.3 24.4 16.0 13.5 82.0- 5.3 1.7---- 5.9------------
1999-08-10 20.0 28.1 14.9 13.5 89.3- 7.0 0.3---- 3.4------------
1999-08-09 20.6 29.6 13.6 11.3 83.8- 3.3 1.3---- 9.7------------
1999-08-08 20.9 26.6 15.7 13.4 79.0- 2.7 1.7---- 0.0------------
1999-08-07 20.1 28.6 11.6 9.4 78.3- 5.0 0.3---- 0.4------------
1999-08-06 21.1 27.7 15.5 14.0 75.3- 5.7 2.0---- 0.6------------
1999-08-05 17.1 26.1 7.4 4.5 71.3- 4.0 0.3---- 0.6------------
1999-08-04 15.8 24.6 7.0 4.5 69.5- 1.7 0.7---- 0.0------------
1999-08-03 15.5 21.7 8.5 5.6 76.3- 4.0 0.0---- 0.0------------
1999-08-02 15.7 22.2 9.1 6.5 74.3- 5.0 0.7---- 0.0------------
1999-08-01 17.0 23.7 9.8 9.2 70.3- 2.3 0.0---- 0.0------------
1999-07-31 16.2 24.1 7.4 5.1 68.8- 2.7 0.3---- 0.0------------
1999-07-30 15.3 23.1 7.1 4.6 74.8- 3.3 0.7---- 0.0------------
1999-07-29 17.5 23.2 10.7 8.2 67.8- 2.0 0.7---- 0.0------------
1999-07-28 19.0 23.7 15.0 13.4 73.3- 5.0 0.7---- 0.0------------
1999-07-27 18.3 22.4 14.4 11.7 93.5- 7.7 1.0---- 0.3------------
1999-07-26 18.8 25.7 10.7 8.5 84.8- 3.0 0.3---- 0.0------------
1999-07-25 17.5 24.2 11.5 9.1 85.5- 3.7 0.3---- 0.0------------
1999-07-24 15.1 19.2 10.3 7.9 88.3- 7.3 0.0---- 0.0------------
1999-07-23 14.3 18.9 11.9 11.8 95.5- 7.7 1.0---- 19.9------------
1999-07-22 18.9 22.6 14.0 11.2 71.0- 6.7 1.7---- 11.6------------
1999-07-21 21.5 28.5 17.3 13.8 69.3- 5.7 2.0---- 1.0------------
1999-07-20 19.8 27.6 10.7 8.8 66.8- 1.0 1.3---- 0.0------------
1999-07-19 18.6 26.6 8.7 6.5 67.0- 2.7 0.0---- 0.0------------
1999-07-18 17.0 25.1 7.5 5.6 67.8- 1.3 1.0---- 0.0------------
1999-07-17 16.3 22.6 9.4 9.0 67.5- 1.7 0.3---- 0.0------------
1999-07-16 16.4 20.8 12.0 10.7 79.8- 4.3 0.3---- 0.0------------
1999-07-15 16.3 20.2 14.0 13.5 88.8- 6.0 1.3---- 0.0------------
1999-07-14 20.3 26.1 16.5 12.4 82.8- 5.0 1.7---- 5.6------------
1999-07-13 19.9 25.0 14.9 14.4 85.0- 6.7 1.0---- 9.6------------
1999-07-12 19.8 27.0 13.4 11.0 83.5- 4.0 0.0---- 0.3------------
1999-07-11 18.9 20.3 17.1 16.5 93.8- 6.3 0.7---- 5.5------------
1999-07-10 20.1 22.1 18.3 16.9 84.0- 7.0 1.7---- 0.0------------
1999-07-09 18.0 20.5 15.2 14.9 95.8- 8.0 1.0---- 13.7------------
1999-07-08 17.8 22.2 15.6 10.1 93.8- 7.7 1.0---- 23.5------------
1999-07-07 21.3 27.7 18.0 16.3 88.3- 7.7 1.3---- 49.5------------
1999-07-06 24.4 31.1 14.0 11.0 56.3- 1.7 2.7---- 0.0------------
1999-07-05 23.5 30.6 14.1 10.9 60.8- 1.0 1.3---- 0.0------------
1999-07-04 21.4 31.5 9.9 7.5 70.8- 0.0 0.3---- 0.0------------
1999-07-03 18.8 24.7 12.5 10.0 78.8- 2.0 0.3---- 0.0------------
1999-07-02 18.6 24.2 11.4 9.4 80.3- 3.0 0.7---- 0.0------------
1999-07-01 18.4 25.2 11.3 9.3 82.8- 4.0 0.7---- 0.0------------
1999-06-30 18.7 24.8 11.2 9.7 76.0- 5.3 0.7---- 0.0------------
1999-06-29 19.5 23.8 14.0 12.2 67.3- 2.3 1.0---- 0.0------------
1999-06-28 17.9 27.7 9.8 9.5 71.8- 4.3 0.7---- 8.0------------
1999-06-27 19.5 27.6 9.7 5.7 63.8- 2.3 1.0---- 0.0------------
1999-06-26 15.9 24.2 5.6 3.2 62.8- 1.0 1.0---- 0.0------------
1999-06-25 12.0 18.8 2.3 0.6 72.3- 2.0 0.3---- 0.0------------
1999-06-24 11.8 15.7 6.2 4.3 80.0- 5.3 0.3---- 0.0------------
1999-06-23 9.4 11.1 7.1 6.8 91.0- 8.0 3.0---- 3.4------------
1999-06-22 10.0 14.7 7.6 7.1 93.8- 8.0 2.7---- 13.3------------
1999-06-21 17.5 22.7 13.9 11.2 77.8- 7.0 1.7---- 29.2------------
1999-06-20 17.3 20.4 14.4 14.1 90.8- 7.3 0.3---- 0.0------------
1999-06-19 15.2 18.1 13.0 12.7 92.0- 8.0 0.7---- 0.1------------
1999-06-18 16.1 18.9 14.5 13.7 96.8- 8.0 0.7---- 19.9------------
1999-06-17 18.1 21.2 15.5 15.1 87.8- 7.3 0.3---- 21.0------------
1999-06-16 16.8 19.6 14.4 14.0 93.3- 7.7 1.3---- 1.3------------
277.4 ms

 

Źródłem pochodzenia danych jest Instytut Meteorologii i Gospodarki Wodnej – Państwowy Instytut Badawczy. Dane Instytutu Meteorologii i Gospodarki Wodnej – Państwowego Instytutu Badawczego zostały przetworzone.

Dane źródłowe można odnaleźć na stronie https://dane.imgw.pl